Explorer — WDD9371 — position and weather

sailwx.info

Track history (hours):
 
Tides and Currents Weather Stations Pressure Air Temp Water Temp Dewpoint Dewpoint Depression Visibility Wind Speed Wind Dir Waves Ship Positions

Explorer

Owner: F/V Explorer, New Bedford, MA. More information available from US FCC via Universal Licensing System and Coast Guard Vessel Documentation Center.

Last reported at 2016-Jul-01 01:33 UTC. Time now 2016-Jul-24 08:44 UTC.
Position N 39°17' W 073°17'.
Warning: this ship's position is 23 days out of date.

Length 28 m.

Type: Fishing. MMSI: 367310440.

Date/timePositionNaut miles runAvg speedWind from/ knotsBaromVisibWave heightAir tempDewpointWater temp
2016-Jul-01 01:33N 39°17' W 073°17'  
2016-Jun-27 08:24N 39°16' W 073°17'4 4.5
2016-Jun-27 07:33N 39°20' W 073°16'4 3.6
2016-Jun-27 06:31N 39°16' W 073°17'3 2.8
2016-Jun-27 05:34N 39°19' W 073°17'1 1.4
2016-Jun-27 04:33N 39°18' W 073°18'0 0.2
2016-Jun-27 03:33N 39°18' W 073°17'2 1.0
2016-Jun-27 01:31N 39°20' W 073°16'3 3.4
2016-Jun-27 00:33N 39°16' W 073°16'1 0.6
2016-Jun-26 23:32N 39°17' W 073°17'3 2.9
2016-Jun-26 22:33N 39°20' W 073°17'4 3.5
2016-Jun-26 21:33N 39°23' W 073°15'1 1.0
2016-Jun-26 20:28N 39°22' W 073°15'5 4.6
2016-Jun-26 19:21N 39°17' W 073°18'4 4.5
2016-Jun-26 18:26N 39°17' W 073°13'4 4.3
2016-Jun-26 17:31N 39°19' W 073°08'14 4.0
2016-Jun-26 14:06N 39°26' W 072°53'3 4.6
2016-Jun-26 13:32N 39°27' W 072°50'2 2.4
2016-Jun-26 12:33N 39°28' W 072°47'3 2.8
2016-Jun-26 11:33N 39°27' W 072°50'5 5.1
2016-Jun-26 10:29N 39°30' W 072°44'910.0
2016-Jun-26 09:33N 39°37' W 072°37'4010.1
2016-Jun-26 05:33N 40°11' W 072°08'1310.1
2016-Jun-26 04:19N 40°21' W 071°59'910.1
2016-Jun-26 03:28N 40°28' W 071°52'  
Track history (hours):
 
Tides and Currents Weather Stations Pressure Air Temp Water Temp Dewpoint Dewpoint Depression Visibility Wind Speed Wind Dir Waves Ship Positions

Explorer

Owner: F/V Explorer, New Bedford, MA. More information available from US FCC via Universal Licensing System and Coast Guard Vessel Documentation Center.

Last reported at 2016-Jul-01 01:33 UTC. Time now 2016-Jul-24 08:44 UTC.
Position N 39°17' W 073°17'.
Warning: this ship's position is 23 days out of date.

Length 28 m.

Type: Fishing. MMSI: 367310440.

Date/timePositionNaut miles runAvg speedWind from/ knotsBaromVisibWave heightAir tempDewpointWater temp
2016-Jul-01 01:33N 39°17' W 073°17'  
2016-Jun-27 08:24N 39°16' W 073°17'4 4.5
2016-Jun-27 07:33N 39°20' W 073°16'4 3.6
2016-Jun-27 06:31N 39°16' W 073°17'3 2.8
2016-Jun-27 05:34N 39°19' W 073°17'1 1.4
2016-Jun-27 04:33N 39°18' W 073°18'0 0.2
2016-Jun-27 03:33N 39°18' W 073°17'2 1.0
2016-Jun-27 01:31N 39°20' W 073°16'3 3.4
2016-Jun-27 00:33N 39°16' W 073°16'1 0.6
2016-Jun-26 23:32N 39°17' W 073°17'3 2.9
2016-Jun-26 22:33N 39°20' W 073°17'4 3.5
2016-Jun-26 21:33N 39°23' W 073°15'1 1.0
2016-Jun-26 20:28N 39°22' W 073°15'5 4.6
2016-Jun-26 19:21N 39°17' W 073°18'4 4.5
2016-Jun-26 18:26N 39°17' W 073°13'4 4.3
2016-Jun-26 17:31N 39°19' W 073°08'14 4.0
2016-Jun-26 14:06N 39°26' W 072°53'3 4.6
2016-Jun-26 13:32N 39°27' W 072°50'2 2.4
2016-Jun-26 12:33N 39°28' W 072°47'3 2.8
2016-Jun-26 11:33N 39°27' W 072°50'5 5.1
2016-Jun-26 10:29N 39°30' W 072°44'910.0
2016-Jun-26 09:33N 39°37' W 072°37'4010.1
2016-Jun-26 05:33N 40°11' W 072°08'1310.1
2016-Jun-26 04:19N 40°21' W 071°59'910.1
2016-Jun-26 03:28N 40°28' W 071°52'  

Dump ship's entire track history